sensor_id;sensor_type;location;lat;lon;timestamp;temperature;humidity
5802;DHT22;2927;49.366;8.530;2024-02-28T00:01:21;5.10;1.00
5802;DHT22;2927;49.366;8.530;2024-02-28T00:03:47;5.10;1.00
5802;DHT22;2927;49.366;8.530;2024-02-28T00:06:12;5.10;1.00
5802;DHT22;2927;49.366;8.530;2024-02-28T00:08:38;5.00;1.00
5802;DHT22;2927;49.366;8.530;2024-02-28T00:11:03;4.90;1.00
5802;DHT22;2927;49.366;8.530;2024-02-28T00:13:29;4.90;1.00
5802;DHT22;2927;49.366;8.530;2024-02-28T00:15:54;4.80;1.00
5802;DHT22;2927;49.366;8.530;2024-02-28T00:18:20;4.90;99.90
5802;DHT22;2927;49.366;8.530;2024-02-28T00:20:46;4.90;99.90
5802;DHT22;2927;49.366;8.530;2024-02-28T00:23:11;4.90;60.70
5802;DHT22;2927;49.366;8.530;2024-02-28T00:25:37;4.90;1.00
5802;DHT22;2927;49.366;8.530;2024-02-28T00:28:02;4.80;99.90
5802;DHT22;2927;49.366;8.530;2024-02-28T00:30:28;4.90;99.90
5802;DHT22;2927;49.366;8.530;2024-02-28T00:32:54;4.80;99.90
5802;DHT22;2927;49.366;8.530;2024-02-28T00:35:20;4.90;99.90
5802;DHT22;2927;49.366;8.530;2024-02-28T00:37:45;4.80;99.90
5802;DHT22;2927;49.366;8.530;2024-02-28T00:40:11;4.80;99.90
5802;DHT22;2927;49.366;8.530;2024-02-28T00:42:37;4.80;99.90
5802;DHT22;2927;49.366;8.530;2024-02-28T00:45:03;4.70;99.90
5802;DHT22;2927;49.366;8.530;2024-02-28T00:47:28;4.70;1.00
5802;DHT22;2927;49.366;8.530;2024-02-28T00:49:54;4.70;1.00
5802;DHT22;2927;49.366;8.530;2024-02-28T00:52:19;4.60;1.00
5802;DHT22;2927;49.366;8.530;2024-02-28T00:54:45;4.60;1.00
5802;DHT22;2927;49.366;8.530;2024-02-28T00:57:10;4.50;1.00
5802;DHT22;2927;49.366;8.530;2024-02-28T00:59:36;4.50;99.90
5802;DHT22;2927;49.366;8.530;2024-02-28T01:02:02;4.50;99.90
5802;DHT22;2927;49.366;8.530;2024-02-28T01:04:29;4.40;99.90
5802;DHT22;2927;49.366;8.530;2024-02-28T01:06:55;4.40;1.00
5802;DHT22;2927;49.366;8.530;2024-02-28T01:09:21;4.40;1.00
5802;DHT22;2927;49.366;8.530;2024-02-28T01:11:47;4.40;1.00
5802;DHT22;2927;49.366;8.530;2024-02-28T01:14:13;4.40;1.00
5802;DHT22;2927;49.366;8.530;2024-02-28T01:16:38;4.40;1.00
5802;DHT22;2927;49.366;8.530;2024-02-28T01:19:04;4.40;1.00
5802;DHT22;2927;49.366;8.530;2024-02-28T01:21:29;4.40;1.00
5802;DHT22;2927;49.366;8.530;2024-02-28T01:23:55;4.40;1.00
5802;DHT22;2927;49.366;8.530;2024-02-28T01:26:20;4.30;20.00
5802;DHT22;2927;49.366;8.530;2024-02-28T01:28:47;4.20;99.90
5802;DHT22;2927;49.366;8.530;2024-02-28T01:31:14;4.20;1.00
5802;DHT22;2927;49.366;8.530;2024-02-28T01:33:39;4.30;1.00
5802;DHT22;2927;49.366;8.530;2024-02-28T01:36:08;4.40;1.00
5802;DHT22;2927;49.366;8.530;2024-02-28T01:38:34;4.30;1.00
5802;DHT22;2927;49.366;8.530;2024-02-28T01:40:59;4.40;1.00
5802;DHT22;2927;49.366;8.530;2024-02-28T01:43:25;4.30;1.00
5802;DHT22;2927;49.366;8.530;2024-02-28T01:45:51;4.30;1.00
5802;DHT22;2927;49.366;8.530;2024-02-28T01:48:16;4.20;1.00
5802;DHT22;2927;49.366;8.530;2024-02-28T01:50:42;4.20;1.00
5802;DHT22;2927;49.366;8.530;2024-02-28T01:53:09;4.20;1.00
5802;DHT22;2927;49.366;8.530;2024-02-28T01:55:36;4.20;99.90
5802;DHT22;2927;49.366;8.530;2024-02-28T01:58:02;4.30;99.90
5802;DHT22;2927;49.366;8.530;2024-02-28T02:00:32;4.30;99.90
5802;DHT22;2927;49.366;8.530;2024-02-28T02:02:59;4.30;99.90
5802;DHT22;2927;49.366;8.530;2024-02-28T02:05:25;4.20;99.90
5802;DHT22;2927;49.366;8.530;2024-02-28T02:07:51;4.30;99.90
5802;DHT22;2927;49.366;8.530;2024-02-28T02:10:17;4.30;1.00
5802;DHT22;2927;49.366;8.530;2024-02-28T02:12:42;4.30;99.90
5802;DHT22;2927;49.366;8.530;2024-02-28T02:15:08;4.30;99.90
5802;DHT22;2927;49.366;8.530;2024-02-28T02:17:34;4.20;99.90
5802;DHT22;2927;49.366;8.530;2024-02-28T02:20:00;4.20;1.00
5802;DHT22;2927;49.366;8.530;2024-02-28T02:24:56;4.30;1.00
5802;DHT22;2927;49.366;8.530;2024-02-28T02:27:24;4.30;1.00
5802;DHT22;2927;49.366;8.530;2024-02-28T02:29:50;4.30;99.90
5802;DHT22;2927;49.366;8.530;2024-02-28T02:32:16;4.20;99.90
5802;DHT22;2927;49.366;8.530;2024-02-28T02:34:41;4.30;1.00
5802;DHT22;2927;49.366;8.530;2024-02-28T02:37:07;4.30;1.00
5802;DHT22;2927;49.366;8.530;2024-02-28T02:39:34;4.20;99.90
5802;DHT22;2927;49.366;8.530;2024-02-28T02:41:59;4.20;1.00
5802;DHT22;2927;49.366;8.530;2024-02-28T02:44:25;4.20;1.00
5802;DHT22;2927;49.366;8.530;2024-02-28T02:46:51;4.10;99.90
5802;DHT22;2927;49.366;8.530;2024-02-28T02:49:16;4.10;1.00
5802;DHT22;2927;49.366;8.530;2024-02-28T02:51:44;4.10;1.00
5802;DHT22;2927;49.366;8.530;2024-02-28T02:54:09;4.00;48.60
5802;DHT22;2927;49.366;8.530;2024-02-28T02:56:35;4.00;27.70
5802;DHT22;2927;49.366;8.530;2024-02-28T02:59:01;4.00;99.90
5802;DHT22;2927;49.366;8.530;2024-02-28T03:01:26;3.90;99.90
5802;DHT22;2927;49.366;8.530;2024-02-28T03:03:52;3.90;1.00
5802;DHT22;2927;49.366;8.530;2024-02-28T03:06:18;3.90;1.00
5802;DHT22;2927;49.366;8.530;2024-02-28T03:08:43;3.80;1.00
5802;DHT22;2927;49.366;8.530;2024-02-28T03:11:09;3.80;1.00
5802;DHT22;2927;49.366;8.530;2024-02-28T03:13:34;3.80;99.90
5802;DHT22;2927;49.366;8.530;2024-02-28T03:16:00;3.70;1.00
5802;DHT22;2927;49.366;8.530;2024-02-28T03:18:25;3.60;99.90
5802;DHT22;2927;49.366;8.530;2024-02-28T03:20:51;3.60;99.90
5802;DHT22;2927;49.366;8.530;2024-02-28T03:23:16;3.50;1.00
5802;DHT22;2927;49.366;8.530;2024-02-28T03:25:42;3.40;1.00
5802;DHT22;2927;49.366;8.530;2024-02-28T03:28:07;3.40;1.00
5802;DHT22;2927;49.366;8.530;2024-02-28T03:30:33;3.40;1.00
5802;DHT22;2927;49.366;8.530;2024-02-28T03:32:59;3.30;1.00
5802;DHT22;2927;49.366;8.530;2024-02-28T03:35:24;3.30;1.00
5802;DHT22;2927;49.366;8.530;2024-02-28T03:37:50;3.30;99.90
5802;DHT22;2927;49.366;8.530;2024-02-28T03:40:15;3.30;1.00
5802;DHT22;2927;49.366;8.530;2024-02-28T03:42:41;3.40;1.00
5802;DHT22;2927;49.366;8.530;2024-02-28T03:45:07;3.30;1.00
5802;DHT22;2927;49.366;8.530;2024-02-28T03:47:32;3.30;1.00
5802;DHT22;2927;49.366;8.530;2024-02-28T03:49:58;3.30;1.00
5802;DHT22;2927;49.366;8.530;2024-02-28T03:52:24;3.20;1.00
5802;DHT22;2927;49.366;8.530;2024-02-28T03:54:50;3.20;1.00
5802;DHT22;2927;49.366;8.530;2024-02-28T03:57:16;3.20;99.90
5802;DHT22;2927;49.366;8.530;2024-02-28T03:59:41;3.20;1.00
5802;DHT22;2927;49.366;8.530;2024-02-28T04:02:07;3.20;1.00
5802;DHT22;2927;49.366;8.530;2024-02-28T04:04:32;3.20;1.00
5802;DHT22;2927;49.366;8.530;2024-02-28T04:06:58;3.10;1.00
5802;DHT22;2927;49.366;8.530;2024-02-28T04:09:23;3.10;99.90
5802;DHT22;2927;49.366;8.530;2024-02-28T04:11:49;3.10;99.90
5802;DHT22;2927;49.366;8.530;2024-02-28T04:14:15;3.00;99.90
5802;DHT22;2927;49.366;8.530;2024-02-28T04:16:43;3.00;1.00
5802;DHT22;2927;49.366;8.530;2024-02-28T04:19:10;3.00;1.00
5802;DHT22;2927;49.366;8.530;2024-02-28T04:21:36;3.00;1.00
5802;DHT22;2927;49.366;8.530;2024-02-28T04:24:02;3.00;1.00
5802;DHT22;2927;49.366;8.530;2024-02-28T04:26:28;3.00;1.00
5802;DHT22;2927;49.366;8.530;2024-02-28T04:28:54;3.00;1.00
5802;DHT22;2927;49.366;8.530;2024-02-28T04:31:21;3.00;1.00
5802;DHT22;2927;49.366;8.530;2024-02-28T04:33:47;2.90;1.00
5802;DHT22;2927;49.366;8.530;2024-02-28T04:36:12;2.90;1.00
5802;DHT22;2927;49.366;8.530;2024-02-28T04:38:38;2.90;99.90
5802;DHT22;2927;49.366;8.530;2024-02-28T04:41:03;2.90;99.90
5802;DHT22;2927;49.366;8.530;2024-02-28T04:43:29;2.80;99.90
5802;DHT22;2927;49.366;8.530;2024-02-28T04:45:54;2.70;99.90
5802;DHT22;2927;49.366;8.530;2024-02-28T04:48:20;2.60;99.90
5802;DHT22;2927;49.366;8.530;2024-02-28T04:50:46;2.50;99.90
5802;DHT22;2927;49.366;8.530;2024-02-28T04:53:11;2.50;1.00
5802;DHT22;2927;49.366;8.530;2024-02-28T04:55:37;2.40;1.00
5802;DHT22;2927;49.366;8.530;2024-02-28T04:58:02;2.50;1.00
5802;DHT22;2927;49.366;8.530;2024-02-28T05:00:28;2.50;1.00
5802;DHT22;2927;49.366;8.530;2024-02-28T05:02:53;2.50;1.00
5802;DHT22;2927;49.366;8.530;2024-02-28T05:05:19;2.50;1.00
5802;DHT22;2927;49.366;8.530;2024-02-28T05:07:44;2.40;1.00
5802;DHT22;2927;49.366;8.530;2024-02-28T05:10:10;2.50;1.00
5802;DHT22;2927;49.366;8.530;2024-02-28T05:12:36;2.50;1.00
5802;DHT22;2927;49.366;8.530;2024-02-28T05:15:01;2.50;1.00
5802;DHT22;2927;49.366;8.530;2024-02-28T05:17:27;2.40;1.00
5802;DHT22;2927;49.366;8.530;2024-02-28T05:19:52;2.40;1.00
5802;DHT22;2927;49.366;8.530;2024-02-28T05:22:18;2.30;1.00
5802;DHT22;2927;49.366;8.530;2024-02-28T05:24:46;2.40;1.00
5802;DHT22;2927;49.366;8.530;2024-02-28T05:27:11;2.40;1.00
5802;DHT22;2927;49.366;8.530;2024-02-28T05:29:37;2.30;1.00
5802;DHT22;2927;49.366;8.530;2024-02-28T05:32:03;2.30;1.00
5802;DHT22;2927;49.366;8.530;2024-02-28T05:34:29;2.30;1.00
5802;DHT22;2927;49.366;8.530;2024-02-28T05:36:55;2.20;1.00
5802;DHT22;2927;49.366;8.530;2024-02-28T05:39:20;2.20;1.00
5802;DHT22;2927;49.366;8.530;2024-02-28T05:41:46;2.20;1.00
5802;DHT22;2927;49.366;8.530;2024-02-28T05:44:12;2.10;1.00
5802;DHT22;2927;49.366;8.530;2024-02-28T05:46:37;2.10;1.00
5802;DHT22;2927;49.366;8.530;2024-02-28T05:49:04;1.90;1.00
5802;DHT22;2927;49.366;8.530;2024-02-28T05:51:30;1.80;1.00
5802;DHT22;2927;49.366;8.530;2024-02-28T05:53:55;1.70;1.00
5802;DHT22;2927;49.366;8.530;2024-02-28T05:56:21;1.70;1.00
5802;DHT22;2927;49.366;8.530;2024-02-28T05:58:47;1.60;1.00
5802;DHT22;2927;49.366;8.530;2024-02-28T06:01:16;1.50;1.00
5802;DHT22;2927;49.366;8.530;2024-02-28T06:03:42;1.50;1.00
5802;DHT22;2927;49.366;8.530;2024-02-28T06:06:10;1.50;1.80
5802;DHT22;2927;49.366;8.530;2024-02-28T06:08:38;1.50;33.40
5802;DHT22;2927;49.366;8.530;2024-02-28T06:11:04;1.60;60.00
5802;DHT22;2927;49.366;8.530;2024-02-28T06:13:30;1.60;70.00
5802;DHT22;2927;49.366;8.530;2024-02-28T06:15:56;1.50;66.30
5802;DHT22;2927;49.366;8.530;2024-02-28T06:18:22;1.60;93.00
5802;DHT22;2927;49.366;8.530;2024-02-28T06:20:49;1.60;92.60
5802;DHT22;2927;49.366;8.530;2024-02-28T06:23:15;1.70;99.90
5802;DHT22;2927;49.366;8.530;2024-02-28T06:25:40;1.70;99.90
5802;DHT22;2927;49.366;8.530;2024-02-28T06:28:06;1.70;99.90
5802;DHT22;2927;49.366;8.530;2024-02-28T06:30:32;1.70;99.90
5802;DHT22;2927;49.366;8.530;2024-02-28T06:33:01;1.70;99.90
5802;DHT22;2927;49.366;8.530;2024-02-28T06:35:27;1.70;99.90
5802;DHT22;2927;49.366;8.530;2024-02-28T06:37:53;1.70;99.90
5802;DHT22;2927;49.366;8.530;2024-02-28T06:40:19;1.70;99.90
5802;DHT22;2927;49.366;8.530;2024-02-28T06:42:45;1.70;99.90
5802;DHT22;2927;49.366;8.530;2024-02-28T06:45:10;1.70;99.80
5802;DHT22;2927;49.366;8.530;2024-02-28T06:47:36;1.70;99.60
5802;DHT22;2927;49.366;8.530;2024-02-28T06:50:03;1.80;99.90
5802;DHT22;2927;49.366;8.530;2024-02-28T06:52:29;1.90;99.00
5802;DHT22;2927;49.366;8.530;2024-02-28T06:54:58;2.10;98.00
5802;DHT22;2927;49.366;8.530;2024-02-28T06:57:25;2.20;61.90
5802;DHT22;2927;49.366;8.530;2024-02-28T06:59:50;2.30;16.60
5802;DHT22;2927;49.366;8.530;2024-02-28T07:02:16;2.40;1.00
5802;DHT22;2927;49.366;8.530;2024-02-28T07:04:42;2.60;1.00
5802;DHT22;2927;49.366;8.530;2024-02-28T07:07:08;2.80;1.00
5802;DHT22;2927;49.366;8.530;2024-02-28T07:09:34;2.90;1.00
5802;DHT22;2927;49.366;8.530;2024-02-28T07:11:59;3.10;1.00
5802;DHT22;2927;49.366;8.530;2024-02-28T07:14:26;3.30;1.00
5802;DHT22;2927;49.366;8.530;2024-02-28T07:16:51;3.50;99.90
5802;DHT22;2927;49.366;8.530;2024-02-28T07:19:17;4.30;99.90
5802;DHT22;2927;49.366;8.530;2024-02-28T07:21:43;5.60;1.00
5802;DHT22;2927;49.366;8.530;2024-02-28T07:24:09;6.60;1.00
5802;DHT22;2927;49.366;8.530;2024-02-28T07:26:34;7.00;1.00
5802;DHT22;2927;49.366;8.530;2024-02-28T07:29:00;6.70;1.00
5802;DHT22;2927;49.366;8.530;2024-02-28T07:31:26;6.90;1.00
5802;DHT22;2927;49.366;8.530;2024-02-28T07:33:51;7.70;99.90
5802;DHT22;2927;49.366;8.530;2024-02-28T07:36:17;8.40;1.00
5802;DHT22;2927;49.366;8.530;2024-02-28T07:38:42;9.20;1.00
5802;DHT22;2927;49.366;8.530;2024-02-28T07:41:08;10.10;1.00
5802;DHT22;2927;49.366;8.530;2024-02-28T07:43:35;10.50;99.90
5802;DHT22;2927;49.366;8.530;2024-02-28T07:46:07;10.80;99.90
5802;DHT22;2927;49.366;8.530;2024-02-28T07:48:33;11.50;99.90
5802;DHT22;2927;49.366;8.530;2024-02-28T07:50:59;12.30;99.90
5802;DHT22;2927;49.366;8.530;2024-02-28T07:53:25;12.50;99.90
5802;DHT22;2927;49.366;8.530;2024-02-28T07:55:50;12.80;99.90
5802;DHT22;2927;49.366;8.530;2024-02-28T07:58:16;13.30;99.90
5802;DHT22;2927;49.366;8.530;2024-02-28T08:00:42;13.00;96.90
5802;DHT22;2927;49.366;8.530;2024-02-28T08:03:09;13.30;88.30
5802;DHT22;2927;49.366;8.530;2024-02-28T08:05:35;13.00;99.90
5802;DHT22;2927;49.366;8.530;2024-02-28T08:08:05;13.50;53.80
5802;DHT22;2927;49.366;8.530;2024-02-28T08:10:31;13.70;38.40
5802;DHT22;2927;49.366;8.530;2024-02-28T08:12:57;13.80;32.60
5802;DHT22;2927;49.366;8.530;2024-02-28T08:15:23;14.00;20.90
5802;DHT22;2927;49.366;8.530;2024-02-28T08:17:48;13.60;22.20
5802;DHT22;2927;49.366;8.530;2024-02-28T08:20:14;13.70;21.40
5802;DHT22;2927;49.366;8.530;2024-02-28T08:22:40;14.20;8.70
5802;DHT22;2927;49.366;8.530;2024-02-28T08:25:05;14.70;5.30
5802;DHT22;2927;49.366;8.530;2024-02-28T08:27:32;14.70;1.00
5802;DHT22;2927;49.366;8.530;2024-02-28T08:30:00;14.50;1.00
5802;DHT22;2927;49.366;8.530;2024-02-28T08:32:25;14.80;1.00
5802;DHT22;2927;49.366;8.530;2024-02-28T08:34:51;15.60;1.00
5802;DHT22;2927;49.366;8.530;2024-02-28T08:37:18;14.60;1.00
5802;DHT22;2927;49.366;8.530;2024-02-28T08:39:44;14.60;1.00
5802;DHT22;2927;49.366;8.530;2024-02-28T08:42:09;14.40;1.00
5802;DHT22;2927;49.366;8.530;2024-02-28T08:44:35;14.40;1.00
5802;DHT22;2927;49.366;8.530;2024-02-28T08:47:00;14.10;1.00
5802;DHT22;2927;49.366;8.530;2024-02-28T08:49:26;14.40;1.00
5802;DHT22;2927;49.366;8.530;2024-02-28T08:51:52;14.40;1.00
5802;DHT22;2927;49.366;8.530;2024-02-28T08:54:17;14.50;1.00
5802;DHT22;2927;49.366;8.530;2024-02-28T08:56:43;14.70;1.00
5802;DHT22;2927;49.366;8.530;2024-02-28T08:59:08;15.00;1.00
5802;DHT22;2927;49.366;8.530;2024-02-28T09:01:34;15.60;1.00
5802;DHT22;2927;49.366;8.530;2024-02-28T09:04:01;15.80;1.00
5802;DHT22;2927;49.366;8.530;2024-02-28T09:06:26;15.70;1.00
5802;DHT22;2927;49.366;8.530;2024-02-28T09:08:52;16.20;1.00
5802;DHT22;2927;49.366;8.530;2024-02-28T09:11:18;16.00;1.00
5802;DHT22;2927;49.366;8.530;2024-02-28T09:13:43;15.80;1.00
5802;DHT22;2927;49.366;8.530;2024-02-28T09:16:09;15.50;1.00
5802;DHT22;2927;49.366;8.530;2024-02-28T09:18:35;15.30;1.00
5802;DHT22;2927;49.366;8.530;2024-02-28T09:21:01;14.90;1.00
5802;DHT22;2927;49.366;8.530;2024-02-28T09:23:26;13.60;1.00
5802;DHT22;2927;49.366;8.530;2024-02-28T09:25:52;13.50;1.00
5802;DHT22;2927;49.366;8.530;2024-02-28T09:28:17;13.70;1.00
5802;DHT22;2927;49.366;8.530;2024-02-28T09:30:43;14.50;1.00
5802;DHT22;2927;49.366;8.530;2024-02-28T09:33:09;15.10;1.00
5802;DHT22;2927;49.366;8.530;2024-02-28T09:35:35;15.50;1.00
5802;DHT22;2927;49.366;8.530;2024-02-28T09:38:02;16.30;1.00
5802;DHT22;2927;49.366;8.530;2024-02-28T09:40:27;16.60;1.00
5802;DHT22;2927;49.366;8.530;2024-02-28T09:42:58;16.20;1.00
5802;DHT22;2927;49.366;8.530;2024-02-28T09:45:26;16.20;1.00
5802;DHT22;2927;49.366;8.530;2024-02-28T09:47:52;14.80;1.00
5802;DHT22;2927;49.366;8.530;2024-02-28T09:50:18;13.80;1.00
5802;DHT22;2927;49.366;8.530;2024-02-28T09:52:45;13.50;1.00
5802;DHT22;2927;49.366;8.530;2024-02-28T09:55:10;13.30;1.00
5802;DHT22;2927;49.366;8.530;2024-02-28T09:57:36;12.70;1.00
5802;DHT22;2927;49.366;8.530;2024-02-28T10:00:03;12.40;1.00
5802;DHT22;2927;49.366;8.530;2024-02-28T10:02:30;12.20;1.00
5802;DHT22;2927;49.366;8.530;2024-02-28T10:04:56;11.80;1.30
5802;DHT22;2927;49.366;8.530;2024-02-28T10:07:23;11.50;29.40
5802;DHT22;2927;49.366;8.530;2024-02-28T10:09:49;11.40;56.90
5802;DHT22;2927;49.366;8.530;2024-02-28T10:12:14;11.20;83.30
5802;DHT22;2927;49.366;8.530;2024-02-28T10:14:40;11.00;56.40
5802;DHT22;2927;49.366;8.530;2024-02-28T10:17:06;10.30;83.20
5802;DHT22;2927;49.366;8.530;2024-02-28T10:19:33;10.10;99.90
5802;DHT22;2927;49.366;8.530;2024-02-28T10:21:59;9.80;99.90
5802;DHT22;2927;49.366;8.530;2024-02-28T10:24:24;10.40;99.90
5802;DHT22;2927;49.366;8.530;2024-02-28T10:26:50;10.70;99.90
5802;DHT22;2927;49.366;8.530;2024-02-28T10:29:25;10.90;99.90
5802;DHT22;2927;49.366;8.530;2024-02-28T10:31:51;10.90;99.90
5802;DHT22;2927;49.366;8.530;2024-02-28T10:34:17;10.60;99.90
5802;DHT22;2927;49.366;8.530;2024-02-28T10:36:44;10.20;99.90
5802;DHT22;2927;49.366;8.530;2024-02-28T10:39:11;10.00;99.90
5802;DHT22;2927;49.366;8.530;2024-02-28T10:41:40;9.90;99.90
5802;DHT22;2927;49.366;8.530;2024-02-28T10:44:07;10.10;99.90
5802;DHT22;2927;49.366;8.530;2024-02-28T10:46:33;10.60;99.90
5802;DHT22;2927;49.366;8.530;2024-02-28T10:48:58;10.30;99.90
5802;DHT22;2927;49.366;8.530;2024-02-28T10:51:25;9.80;99.90
5802;DHT22;2927;49.366;8.530;2024-02-28T10:56:24;9.40;99.90
5802;DHT22;2927;49.366;8.530;2024-02-28T10:58:52;9.30;99.90
5802;DHT22;2927;49.366;8.530;2024-02-28T11:01:18;9.40;99.90
5802;DHT22;2927;49.366;8.530;2024-02-28T11:03:44;9.60;99.90
5802;DHT22;2927;49.366;8.530;2024-02-28T11:06:20;10.00;99.90
5802;DHT22;2927;49.366;8.530;2024-02-28T11:08:48;10.20;99.90
5802;DHT22;2927;49.366;8.530;2024-02-28T11:11:20;10.70;99.90
5802;DHT22;2927;49.366;8.530;2024-02-28T11:13:58;10.60;99.90
5802;DHT22;2927;49.366;8.530;2024-02-28T11:16:33;10.90;99.90
5802;DHT22;2927;49.366;8.530;2024-02-28T11:18:59;11.00;99.90
5802;DHT22;2927;49.366;8.530;2024-02-28T11:21:26;11.10;99.90
5802;DHT22;2927;49.366;8.530;2024-02-28T11:23:52;11.10;99.90
5802;DHT22;2927;49.366;8.530;2024-02-28T11:26:22;11.10;99.90
5802;DHT22;2927;49.366;8.530;2024-02-28T11:28:47;11.10;99.90
5802;DHT22;2927;49.366;8.530;2024-02-28T11:31:13;11.10;99.90
5802;DHT22;2927;49.366;8.530;2024-02-28T11:33:39;11.00;99.90
5802;DHT22;2927;49.366;8.530;2024-02-28T11:36:05;10.90;99.90
5802;DHT22;2927;49.366;8.530;2024-02-28T11:38:37;11.10;99.90
5802;DHT22;2927;49.366;8.530;2024-02-28T11:41:04;11.30;99.90
5802;DHT22;2927;49.366;8.530;2024-02-28T11:43:33;11.30;99.90
5802;DHT22;2927;49.366;8.530;2024-02-28T11:46:00;11.30;99.90
5802;DHT22;2927;49.366;8.530;2024-02-28T11:48:26;11.40;99.90
5802;DHT22;2927;49.366;8.530;2024-02-28T11:50:53;11.40;99.90
5802;DHT22;2927;49.366;8.530;2024-02-28T11:53:19;11.50;99.90
5802;DHT22;2927;49.366;8.530;2024-02-28T11:55:46;11.60;99.90
5802;DHT22;2927;49.366;8.530;2024-02-28T11:58:13;11.40;99.90
5802;DHT22;2927;49.366;8.530;2024-02-28T12:00:48;11.40;99.90
5802;DHT22;2927;49.366;8.530;2024-02-28T12:03:14;11.30;99.90
5802;DHT22;2927;49.366;8.530;2024-02-28T12:05:43;11.10;99.90
5802;DHT22;2927;49.366;8.530;2024-02-28T12:08:10;11.00;99.90
5802;DHT22;2927;49.366;8.530;2024-02-28T12:10:36;10.80;99.90
5802;DHT22;2927;49.366;8.530;2024-02-28T12:13:02;10.60;99.90
5802;DHT22;2927;49.366;8.530;2024-02-28T12:15:31;10.20;99.90
5802;DHT22;2927;49.366;8.530;2024-02-28T12:17:57;10.20;99.90
5802;DHT22;2927;49.366;8.530;2024-02-28T12:20:25;10.40;99.90
5802;DHT22;2927;49.366;8.530;2024-02-28T12:22:51;10.40;99.90
5802;DHT22;2927;49.366;8.530;2024-02-28T12:25:16;10.50;99.90
5802;DHT22;2927;49.366;8.530;2024-02-28T12:27:42;10.40;99.90
5802;DHT22;2927;49.366;8.530;2024-02-28T12:30:08;10.30;99.90
5802;DHT22;2927;49.366;8.530;2024-02-28T12:32:34;10.30;99.90
5802;DHT22;2927;49.366;8.530;2024-02-28T12:34:59;10.20;99.90
5802;DHT22;2927;49.366;8.530;2024-02-28T12:37:25;10.40;99.90
5802;DHT22;2927;49.366;8.530;2024-02-28T12:39:51;10.60;99.90
5802;DHT22;2927;49.366;8.530;2024-02-28T12:42:17;10.60;99.90
5802;DHT22;2927;49.366;8.530;2024-02-28T12:44:43;10.60;99.90
5802;DHT22;2927;49.366;8.530;2024-02-28T12:47:12;10.50;99.90
5802;DHT22;2927;49.366;8.530;2024-02-28T12:49:38;10.60;99.90
5802;DHT22;2927;49.366;8.530;2024-02-28T12:52:03;10.70;99.90
5802;DHT22;2927;49.366;8.530;2024-02-28T12:54:30;10.40;99.90
5802;DHT22;2927;49.366;8.530;2024-02-28T12:56:55;10.30;99.90
5802;DHT22;2927;49.366;8.530;2024-02-28T12:59:21;10.10;99.90
5802;DHT22;2927;49.366;8.530;2024-02-28T13:01:46;10.10;99.90
5802;DHT22;2927;49.366;8.530;2024-02-28T13:04:15;10.20;99.90
5802;DHT22;2927;49.366;8.530;2024-02-28T13:06:41;10.40;99.90
5802;DHT22;2927;49.366;8.530;2024-02-28T13:09:06;10.50;99.90
5802;DHT22;2927;49.366;8.530;2024-02-28T13:11:37;10.50;99.90
5802;DHT22;2927;49.366;8.530;2024-02-28T13:14:03;10.60;99.90
5802;DHT22;2927;49.366;8.530;2024-02-28T13:16:29;10.70;99.90
5802;DHT22;2927;49.366;8.530;2024-02-28T13:18:55;10.70;99.90
5802;DHT22;2927;49.366;8.530;2024-02-28T13:21:21;10.80;99.90
5802;DHT22;2927;49.366;8.530;2024-02-28T13:23:47;10.90;99.90
5802;DHT22;2927;49.366;8.530;2024-02-28T13:26:12;10.60;99.90
5802;DHT22;2927;49.366;8.530;2024-02-28T13:28:47;10.50;99.90
5802;DHT22;2927;49.366;8.530;2024-02-28T13:31:13;10.60;99.90
5802;DHT22;2927;49.366;8.530;2024-02-28T13:33:39;10.70;99.90
5802;DHT22;2927;49.366;8.530;2024-02-28T13:36:07;10.80;99.90
5802;DHT22;2927;49.366;8.530;2024-02-28T13:38:34;10.80;99.90
5802;DHT22;2927;49.366;8.530;2024-02-28T13:40:59;10.80;99.90
5802;DHT22;2927;49.366;8.530;2024-02-28T13:43:25;10.80;99.90
5802;DHT22;2927;49.366;8.530;2024-02-28T13:45:51;10.90;99.90
5802;DHT22;2927;49.366;8.530;2024-02-28T13:48:19;10.80;99.90
5802;DHT22;2927;49.366;8.530;2024-02-28T13:50:52;10.80;99.90
5802;DHT22;2927;49.366;8.530;2024-02-28T13:53:18;10.70;99.90
5802;DHT22;2927;49.366;8.530;2024-02-28T13:55:46;10.70;99.90
5802;DHT22;2927;49.366;8.530;2024-02-28T13:58:14;10.60;99.90
5802;DHT22;2927;49.366;8.530;2024-02-28T14:00:46;10.50;99.90
5802;DHT22;2927;49.366;8.530;2024-02-28T14:03:12;10.50;99.90
5802;DHT22;2927;49.366;8.530;2024-02-28T14:05:38;10.60;99.90
5802;DHT22;2927;49.366;8.530;2024-02-28T14:08:04;10.70;99.90
5802;DHT22;2927;49.366;8.530;2024-02-28T14:10:32;10.70;99.90
5802;DHT22;2927;49.366;8.530;2024-02-28T14:12:58;10.80;99.90
5802;DHT22;2927;49.366;8.530;2024-02-28T14:15:23;10.80;99.90
5802;DHT22;2927;49.366;8.530;2024-02-28T14:17:49;10.80;99.90
5802;DHT22;2927;49.366;8.530;2024-02-28T14:20:15;10.70;99.90
5802;DHT22;2927;49.366;8.530;2024-02-28T14:22:40;10.60;99.90
5802;DHT22;2927;49.366;8.530;2024-02-28T14:25:14;10.60;99.90
5802;DHT22;2927;49.366;8.530;2024-02-28T14:27:41;10.50;99.90
5802;DHT22;2927;49.366;8.530;2024-02-28T14:30:08;10.60;99.90
5802;DHT22;2927;49.366;8.530;2024-02-28T14:32:34;10.60;99.90
5802;DHT22;2927;49.366;8.530;2024-02-28T14:35:01;10.70;99.90
5802;DHT22;2927;49.366;8.530;2024-02-28T14:37:26;10.80;99.90
5802;DHT22;2927;49.366;8.530;2024-02-28T14:39:53;10.90;99.90
5802;DHT22;2927;49.366;8.530;2024-02-28T14:42:19;11.00;99.90
5802;DHT22;2927;49.366;8.530;2024-02-28T14:44:44;11.00;99.90
5802;DHT22;2927;49.366;8.530;2024-02-28T14:47:09;10.90;99.90
5802;DHT22;2927;49.366;8.530;2024-02-28T14:49:35;10.80;99.90
5802;DHT22;2927;49.366;8.530;2024-02-28T14:52:03;10.70;99.90
5802;DHT22;2927;49.366;8.530;2024-02-28T14:54:29;10.60;99.90
5802;DHT22;2927;49.366;8.530;2024-02-28T14:56:55;10.60;99.90
5802;DHT22;2927;49.366;8.530;2024-02-28T14:59:20;10.60;99.90
5802;DHT22;2927;49.366;8.530;2024-02-28T15:01:48;10.60;99.90
5802;DHT22;2927;49.366;8.530;2024-02-28T15:04:14;10.60;99.90
5802;DHT22;2927;49.366;8.530;2024-02-28T15:06:41;10.50;99.90
5802;DHT22;2927;49.366;8.530;2024-02-28T15:09:07;10.50;99.90
5802;DHT22;2927;49.366;8.530;2024-02-28T15:11:32;10.40;99.90
5802;DHT22;2927;49.366;8.530;2024-02-28T15:13:58;10.30;99.10
5802;DHT22;2927;49.366;8.530;2024-02-28T15:16:24;10.20;99.90
5802;DHT22;2927;49.366;8.530;2024-02-28T15:18:50;10.30;99.70
5802;DHT22;2927;49.366;8.530;2024-02-28T15:21:15;10.20;99.90
5802;DHT22;2927;49.366;8.530;2024-02-28T15:23:41;10.20;99.90
5802;DHT22;2927;49.366;8.530;2024-02-28T15:26:06;10.30;99.90
5802;DHT22;2927;49.366;8.530;2024-02-28T15:28:32;10.40;99.90
5802;DHT22;2927;49.366;8.530;2024-02-28T15:30:58;10.40;99.90
5802;DHT22;2927;49.366;8.530;2024-02-28T15:33:23;10.40;99.90
5802;DHT22;2927;49.366;8.530;2024-02-28T15:35:49;10.40;99.90
5802;DHT22;2927;49.366;8.530;2024-02-28T15:38:15;10.40;99.90
5802;DHT22;2927;49.366;8.530;2024-02-28T15:40:40;10.30;99.90
5802;DHT22;2927;49.366;8.530;2024-02-28T15:43:06;10.30;99.90
5802;DHT22;2927;49.366;8.530;2024-02-28T15:45:32;10.30;98.90
5802;DHT22;2927;49.366;8.530;2024-02-28T15:47:58;10.20;98.40
5802;DHT22;2927;49.366;8.530;2024-02-28T15:50:24;10.30;99.90
5802;DHT22;2927;49.366;8.530;2024-02-28T15:52:50;10.30;99.00
5802;DHT22;2927;49.366;8.530;2024-02-28T15:55:16;10.20;99.80
5802;DHT22;2927;49.366;8.530;2024-02-28T15:57:46;10.20;99.90
5802;DHT22;2927;49.366;8.530;2024-02-28T16:00:11;10.10;99.90
5802;DHT22;2927;49.366;8.530;2024-02-28T16:02:37;10.10;99.90
5802;DHT22;2927;49.366;8.530;2024-02-28T16:05:03;10.10;99.90
5802;DHT22;2927;49.366;8.530;2024-02-28T16:07:30;10.10;99.60
5802;DHT22;2927;49.366;8.530;2024-02-28T16:09:55;10.10;99.90
5802;DHT22;2927;49.366;8.530;2024-02-28T16:12:22;10.10;99.90
5802;DHT22;2927;49.366;8.530;2024-02-28T16:14:49;10.10;99.90